sensor_id;sensor_type;location;lat;lon;timestamp;P1;durP1;ratioP1;P2;durP2;ratioP2
22557;SDS011;11445;53.816;8.902;2023-05-07T00:01:42;21.70;;;15.50;;
22557;SDS011;11445;53.816;8.902;2023-05-07T00:04:09;24.27;;;16.00;;
22557;SDS011;11445;53.816;8.902;2023-05-07T00:06:36;24.13;;;16.20;;
22557;SDS011;11445;53.816;8.902;2023-05-07T00:09:03;24.05;;;15.55;;
22557;SDS011;11445;53.816;8.902;2023-05-07T00:11:32;25.83;;;15.50;;
22557;SDS011;11445;53.816;8.902;2023-05-07T00:13:59;23.25;;;15.90;;
22557;SDS011;11445;53.816;8.902;2023-05-07T00:16:26;22.90;;;16.10;;
22557;SDS011;11445;53.816;8.902;2023-05-07T00:18:53;25.80;;;16.15;;
22557;SDS011;11445;53.816;8.902;2023-05-07T00:21:20;24.00;;;16.15;;
22557;SDS011;11445;53.816;8.902;2023-05-07T00:23:47;29.33;;;16.67;;
22557;SDS011;11445;53.816;8.902;2023-05-07T00:26:14;23.98;;;15.13;;
22557;SDS011;11445;53.816;8.902;2023-05-07T00:28:43;21.15;;;14.10;;
22557;SDS011;11445;53.816;8.902;2023-05-07T00:31:10;22.15;;;14.30;;
22557;SDS011;11445;53.816;8.902;2023-05-07T00:33:37;21.48;;;14.80;;
22557;SDS011;11445;53.816;8.902;2023-05-07T00:36:05;26.13;;;15.63;;
22557;SDS011;11445;53.816;8.902;2023-05-07T00:38:32;23.00;;;15.10;;
22557;SDS011;11445;53.816;8.902;2023-05-07T00:40:59;20.90;;;14.25;;
22557;SDS011;11445;53.816;8.902;2023-05-07T00:43:27;21.30;;;14.02;;
22557;SDS011;11445;53.816;8.902;2023-05-07T00:45:56;24.63;;;14.07;;
22557;SDS011;11445;53.816;8.902;2023-05-07T00:48:23;21.30;;;13.57;;
22557;SDS011;11445;53.816;8.902;2023-05-07T00:50:51;23.15;;;14.68;;
22557;SDS011;11445;53.816;8.902;2023-05-07T00:53:18;20.15;;;13.95;;
22557;SDS011;11445;53.816;8.902;2023-05-07T00:55:45;20.50;;;13.98;;
22557;SDS011;11445;53.816;8.902;2023-05-07T00:58:13;19.55;;;13.93;;
22557;SDS011;11445;53.816;8.902;2023-05-07T01:00:40;22.75;;;14.27;;
22557;SDS011;11445;53.816;8.902;2023-05-07T01:03:09;23.98;;;13.70;;
22557;SDS011;11445;53.816;8.902;2023-05-07T01:05:36;21.90;;;13.95;;
22557;SDS011;11445;53.816;8.902;2023-05-07T01:08:03;20.60;;;14.07;;
22557;SDS011;11445;53.816;8.902;2023-05-07T01:10:30;20.48;;;14.55;;
22557;SDS011;11445;53.816;8.902;2023-05-07T01:12:58;21.15;;;14.15;;
22557;SDS011;11445;53.816;8.902;2023-05-07T01:15:26;19.98;;;14.43;;
22557;SDS011;11445;53.816;8.902;2023-05-07T01:17:53;20.73;;;14.52;;
22557;SDS011;11445;53.816;8.902;2023-05-07T01:20:23;21.05;;;14.57;;
22557;SDS011;11445;53.816;8.902;2023-05-07T01:22:52;19.45;;;14.18;;
22557;SDS011;11445;53.816;8.902;2023-05-07T01:25:21;22.05;;;14.98;;
22557;SDS011;11445;53.816;8.902;2023-05-07T01:27:48;21.23;;;14.45;;
22557;SDS011;11445;53.816;8.902;2023-05-07T01:30:15;21.63;;;14.90;;
22557;SDS011;11445;53.816;8.902;2023-05-07T01:32:45;23.08;;;14.27;;
22557;SDS011;11445;53.816;8.902;2023-05-07T01:35:18;20.65;;;14.48;;
22557;SDS011;11445;53.816;8.902;2023-05-07T01:37:47;23.33;;;14.48;;
22557;SDS011;11445;53.816;8.902;2023-05-07T01:40:17;21.48;;;13.55;;
22557;SDS011;11445;53.816;8.902;2023-05-07T01:42:44;22.77;;;14.05;;
22557;SDS011;11445;53.816;8.902;2023-05-07T01:45:13;21.27;;;14.02;;
22557;SDS011;11445;53.816;8.902;2023-05-07T01:47:40;19.90;;;13.65;;
22557;SDS011;11445;53.816;8.902;2023-05-07T01:50:08;19.65;;;13.55;;
22557;SDS011;11445;53.816;8.902;2023-05-07T01:52:36;20.52;;;13.50;;
22557;SDS011;11445;53.816;8.902;2023-05-07T01:55:04;21.58;;;14.15;;
22557;SDS011;11445;53.816;8.902;2023-05-07T01:57:34;18.88;;;13.10;;
22557;SDS011;11445;53.816;8.902;2023-05-07T02:00:01;19.60;;;13.60;;
22557;SDS011;11445;53.816;8.902;2023-05-07T02:02:31;21.67;;;13.25;;
22557;SDS011;11445;53.816;8.902;2023-05-07T02:04:58;21.50;;;13.73;;
22557;SDS011;11445;53.816;8.902;2023-05-07T02:07:26;19.65;;;12.45;;
22557;SDS011;11445;53.816;8.902;2023-05-07T02:09:53;18.63;;;12.13;;
22557;SDS011;11445;53.816;8.902;2023-05-07T02:12:21;14.68;;;10.40;;
22557;SDS011;11445;53.816;8.902;2023-05-07T02:14:49;14.70;;;10.57;;
22557;SDS011;11445;53.816;8.902;2023-05-07T02:17:16;13.82;;;10.25;;
22557;SDS011;11445;53.816;8.902;2023-05-07T02:19:43;18.77;;;10.73;;
22557;SDS011;11445;53.816;8.902;2023-05-07T02:22:11;14.63;;;9.68;;
22557;SDS011;11445;53.816;8.902;2023-05-07T02:24:38;16.77;;;10.13;;
22557;SDS011;11445;53.816;8.902;2023-05-07T02:27:05;14.07;;;9.52;;
22557;SDS011;11445;53.816;8.902;2023-05-07T02:29:32;15.90;;;10.18;;
22557;SDS011;11445;53.816;8.902;2023-05-07T02:32:00;19.42;;;10.07;;
22557;SDS011;11445;53.816;8.902;2023-05-07T02:34:27;15.90;;;9.60;;
22557;SDS011;11445;53.816;8.902;2023-05-07T02:36:54;13.98;;;10.27;;
22557;SDS011;11445;53.816;8.902;2023-05-07T02:39:21;13.70;;;9.95;;
22557;SDS011;11445;53.816;8.902;2023-05-07T02:41:48;16.25;;;10.13;;
22557;SDS011;11445;53.816;8.902;2023-05-07T02:44:15;13.82;;;9.63;;
22557;SDS011;11445;53.816;8.902;2023-05-07T02:46:43;13.60;;;10.40;;
22557;SDS011;11445;53.816;8.902;2023-05-07T02:49:11;16.08;;;9.65;;
22557;SDS011;11445;53.816;8.902;2023-05-07T02:51:38;15.40;;;10.18;;
22557;SDS011;11445;53.816;8.902;2023-05-07T02:54:05;14.73;;;10.27;;
22557;SDS011;11445;53.816;8.902;2023-05-07T02:56:32;15.27;;;10.10;;
22557;SDS011;11445;53.816;8.902;2023-05-07T02:58:59;14.70;;;10.45;;
22557;SDS011;11445;53.816;8.902;2023-05-07T03:01:26;18.55;;;10.70;;
22557;SDS011;11445;53.816;8.902;2023-05-07T03:03:53;16.02;;;10.48;;
22557;SDS011;11445;53.816;8.902;2023-05-07T03:06:22;13.20;;;9.70;;
22557;SDS011;11445;53.816;8.902;2023-05-07T03:08:49;15.13;;;9.65;;
22557;SDS011;11445;53.816;8.902;2023-05-07T03:11:16;16.27;;;10.82;;
22557;SDS011;11445;53.816;8.902;2023-05-07T03:13:44;13.02;;;9.32;;
22557;SDS011;11445;53.816;8.902;2023-05-07T03:16:11;12.77;;;9.18;;
22557;SDS011;11445;53.816;8.902;2023-05-07T03:18:38;15.38;;;9.55;;
22557;SDS011;11445;53.816;8.902;2023-05-07T03:21:05;11.85;;;8.63;;
22557;SDS011;11445;53.816;8.902;2023-05-07T03:23:33;13.27;;;9.13;;
22557;SDS011;11445;53.816;8.902;2023-05-07T03:26:00;14.38;;;9.63;;
22557;SDS011;11445;53.816;8.902;2023-05-07T03:28:27;10.85;;;8.35;;
22557;SDS011;11445;53.816;8.902;2023-05-07T03:30:54;11.27;;;8.63;;
22557;SDS011;11445;53.816;8.902;2023-05-07T03:33:21;12.15;;;8.95;;
22557;SDS011;11445;53.816;8.902;2023-05-07T03:35:49;11.15;;;8.40;;
22557;SDS011;11445;53.816;8.902;2023-05-07T03:38:16;11.60;;;8.80;;
22557;SDS011;11445;53.816;8.902;2023-05-07T03:40:44;11.57;;;8.63;;
22557;SDS011;11445;53.816;8.902;2023-05-07T03:43:11;12.00;;;8.88;;
22557;SDS011;11445;53.816;8.902;2023-05-07T03:45:38;13.00;;;8.75;;
22557;SDS011;11445;53.816;8.902;2023-05-07T03:48:05;11.95;;;8.65;;
22557;SDS011;11445;53.816;8.902;2023-05-07T03:50:32;11.13;;;8.48;;
22557;SDS011;11445;53.816;8.902;2023-05-07T03:52:59;12.10;;;8.40;;
22557;SDS011;11445;53.816;8.902;2023-05-07T03:55:26;12.52;;;8.80;;
22557;SDS011;11445;53.816;8.902;2023-05-07T03:57:55;11.82;;;8.88;;
22557;SDS011;11445;53.816;8.902;2023-05-07T04:00:22;10.63;;;8.13;;
22557;SDS011;11445;53.816;8.902;2023-05-07T04:02:49;11.40;;;8.57;;
22557;SDS011;11445;53.816;8.902;2023-05-07T04:05:16;12.50;;;8.75;;
22557;SDS011;11445;53.816;8.902;2023-05-07T04:07:43;11.75;;;8.38;;
22557;SDS011;11445;53.816;8.902;2023-05-07T04:10:10;12.10;;;9.07;;
22557;SDS011;11445;53.816;8.902;2023-05-07T04:12:38;10.77;;;8.48;;
22557;SDS011;11445;53.816;8.902;2023-05-07T04:15:07;12.25;;;8.82;;
22557;SDS011;11445;53.816;8.902;2023-05-07T04:17:35;12.55;;;8.25;;
22557;SDS011;11445;53.816;8.902;2023-05-07T04:20:02;13.98;;;8.65;;
22557;SDS011;11445;53.816;8.902;2023-05-07T04:22:32;12.77;;;8.32;;
22557;SDS011;11445;53.816;8.902;2023-05-07T04:24:59;12.77;;;8.80;;
22557;SDS011;11445;53.816;8.902;2023-05-07T04:27:27;14.05;;;9.43;;
22557;SDS011;11445;53.816;8.902;2023-05-07T04:29:54;12.60;;;9.30;;
22557;SDS011;11445;53.816;8.902;2023-05-07T04:32:23;12.65;;;9.48;;
22557;SDS011;11445;53.816;8.902;2023-05-07T04:34:51;13.38;;;9.80;;
22557;SDS011;11445;53.816;8.902;2023-05-07T04:37:18;11.93;;;8.88;;
22557;SDS011;11445;53.816;8.902;2023-05-07T04:39:45;13.00;;;9.77;;
22557;SDS011;11445;53.816;8.902;2023-05-07T04:42:14;13.70;;;9.68;;
22557;SDS011;11445;53.816;8.902;2023-05-07T04:44:41;13.25;;;9.90;;
22557;SDS011;11445;53.816;8.902;2023-05-07T04:47:08;13.65;;;9.50;;
22557;SDS011;11445;53.816;8.902;2023-05-07T04:49:37;12.68;;;9.35;;
22557;SDS011;11445;53.816;8.902;2023-05-07T04:52:04;16.17;;;9.50;;
22557;SDS011;11445;53.816;8.902;2023-05-07T04:54:31;11.75;;;9.18;;
22557;SDS011;11445;53.816;8.902;2023-05-07T04:56:58;13.35;;;9.40;;
22557;SDS011;11445;53.816;8.902;2023-05-07T04:59:25;13.75;;;10.02;;
22557;SDS011;11445;53.816;8.902;2023-05-07T05:01:53;15.63;;;10.13;;
22557;SDS011;11445;53.816;8.902;2023-05-07T05:04:20;11.75;;;9.32;;
22557;SDS011;11445;53.816;8.902;2023-05-07T05:06:48;13.25;;;9.23;;
22557;SDS011;11445;53.816;8.902;2023-05-07T05:09:15;13.30;;;9.63;;
22557;SDS011;11445;53.816;8.902;2023-05-07T05:11:43;14.38;;;9.32;;
22557;SDS011;11445;53.816;8.902;2023-05-07T05:14:10;13.27;;;9.82;;
22557;SDS011;11445;53.816;8.902;2023-05-07T05:16:37;14.68;;;10.05;;
22557;SDS011;11445;53.816;8.902;2023-05-07T05:19:04;17.95;;;10.50;;
22557;SDS011;11445;53.816;8.902;2023-05-07T05:21:31;14.13;;;10.15;;
22557;SDS011;11445;53.816;8.902;2023-05-07T05:24:00;14.18;;;10.18;;
22557;SDS011;11445;53.816;8.902;2023-05-07T05:26:27;14.15;;;10.20;;
22557;SDS011;11445;53.816;8.902;2023-05-07T05:28:54;14.70;;;10.00;;
22557;SDS011;11445;53.816;8.902;2023-05-07T05:31:21;16.00;;;10.80;;
22557;SDS011;11445;53.816;8.902;2023-05-07T05:33:48;14.35;;;10.75;;
22557;SDS011;11445;53.816;8.902;2023-05-07T05:36:15;18.50;;;11.20;;
22557;SDS011;11445;53.816;8.902;2023-05-07T05:38:43;14.13;;;10.25;;
22557;SDS011;11445;53.816;8.902;2023-05-07T05:41:11;14.35;;;10.45;;
22557;SDS011;11445;53.816;8.902;2023-05-07T05:43:38;15.77;;;10.55;;
22557;SDS011;11445;53.816;8.902;2023-05-07T05:46:05;16.65;;;11.02;;
22557;SDS011;11445;53.816;8.902;2023-05-07T05:48:34;15.02;;;10.38;;
22557;SDS011;11445;53.816;8.902;2023-05-07T05:51:01;17.58;;;10.63;;
22557;SDS011;11445;53.816;8.902;2023-05-07T05:53:28;14.25;;;10.25;;
22557;SDS011;11445;53.816;8.902;2023-05-07T05:55:55;13.27;;;9.95;;
22557;SDS011;11445;53.816;8.902;2023-05-07T05:58:23;15.68;;;11.10;;
22557;SDS011;11445;53.816;8.902;2023-05-07T06:00:50;14.98;;;10.00;;
22557;SDS011;11445;53.816;8.902;2023-05-07T06:03:18;18.42;;;10.85;;
22557;SDS011;11445;53.816;8.902;2023-05-07T06:05:45;15.45;;;10.30;;
22557;SDS011;11445;53.816;8.902;2023-05-07T06:08:12;13.70;;;10.23;;
22557;SDS011;11445;53.816;8.902;2023-05-07T06:10:40;13.32;;;10.18;;
22557;SDS011;11445;53.816;8.902;2023-05-07T06:13:07;14.98;;;10.00;;
22557;SDS011;11445;53.816;8.902;2023-05-07T06:15:36;16.98;;;10.90;;
22557;SDS011;11445;53.816;8.902;2023-05-07T06:18:03;13.18;;;9.88;;
22557;SDS011;11445;53.816;8.902;2023-05-07T06:20:30;16.15;;;11.00;;
22557;SDS011;11445;53.816;8.902;2023-05-07T06:22:57;14.55;;;9.50;;
22557;SDS011;11445;53.816;8.902;2023-05-07T06:25:24;16.00;;;10.77;;
22557;SDS011;11445;53.816;8.902;2023-05-07T06:27:51;14.52;;;9.57;;
22557;SDS011;11445;53.816;8.902;2023-05-07T06:30:18;16.55;;;11.15;;
22557;SDS011;11445;53.816;8.902;2023-05-07T06:32:47;15.23;;;10.48;;
22557;SDS011;11445;53.816;8.902;2023-05-07T06:35:14;15.38;;;10.95;;
22557;SDS011;11445;53.816;8.902;2023-05-07T06:37:41;14.15;;;10.40;;
22557;SDS011;11445;53.816;8.902;2023-05-07T06:40:09;19.27;;;10.63;;
22557;SDS011;11445;53.816;8.902;2023-05-07T06:42:36;18.25;;;11.27;;
22557;SDS011;11445;53.816;8.902;2023-05-07T06:45:04;13.73;;;10.07;;
22557;SDS011;11445;53.816;8.902;2023-05-07T06:47:32;16.17;;;10.43;;
22557;SDS011;11445;53.816;8.902;2023-05-07T06:50:00;16.90;;;10.60;;
22557;SDS011;11445;53.816;8.902;2023-05-07T06:52:27;15.45;;;10.40;;
22557;SDS011;11445;53.816;8.902;2023-05-07T06:54:54;17.88;;;11.15;;
22557;SDS011;11445;53.816;8.902;2023-05-07T06:57:22;17.65;;;10.35;;
22557;SDS011;11445;53.816;8.902;2023-05-07T06:59:49;14.68;;;10.75;;
22557;SDS011;11445;53.816;8.902;2023-05-07T07:02:16;14.18;;;10.35;;
22557;SDS011;11445;53.816;8.902;2023-05-07T07:04:43;14.18;;;10.20;;
22557;SDS011;11445;53.816;8.902;2023-05-07T07:07:11;13.60;;;10.05;;
22557;SDS011;11445;53.816;8.902;2023-05-07T07:09:38;15.93;;;10.38;;
22557;SDS011;11445;53.816;8.902;2023-05-07T07:12:05;15.30;;;10.77;;
22557;SDS011;11445;53.816;8.902;2023-05-07T07:14:33;14.98;;;10.52;;
22557;SDS011;11445;53.816;8.902;2023-05-07T07:17:00;14.25;;;10.63;;
22557;SDS011;11445;53.816;8.902;2023-05-07T07:19:27;14.32;;;10.38;;
22557;SDS011;11445;53.816;8.902;2023-05-07T07:21:54;19.88;;;10.82;;
22557;SDS011;11445;53.816;8.902;2023-05-07T07:24:22;16.02;;;10.82;;
22557;SDS011;11445;53.816;8.902;2023-05-07T07:26:49;17.42;;;11.30;;
22557;SDS011;11445;53.816;8.902;2023-05-07T07:29:16;14.77;;;10.90;;
22557;SDS011;11445;53.816;8.902;2023-05-07T07:31:44;15.75;;;11.05;;
22557;SDS011;11445;53.816;8.902;2023-05-07T07:34:11;15.90;;;11.38;;
22557;SDS011;11445;53.816;8.902;2023-05-07T07:36:39;17.23;;;11.50;;
22557;SDS011;11445;53.816;8.902;2023-05-07T07:39:06;14.88;;;10.45;;
22557;SDS011;11445;53.816;8.902;2023-05-07T07:41:34;14.73;;;10.65;;
22557;SDS011;11445;53.816;8.902;2023-05-07T07:44:03;14.07;;;10.60;;
22557;SDS011;11445;53.816;8.902;2023-05-07T07:46:32;16.73;;;10.88;;
22557;SDS011;11445;53.816;8.902;2023-05-07T07:48:59;12.52;;;9.65;;
22557;SDS011;11445;53.816;8.902;2023-05-07T07:51:26;13.35;;;10.27;;
22557;SDS011;11445;53.816;8.902;2023-05-07T07:53:54;14.68;;;9.68;;
22557;SDS011;11445;53.816;8.902;2023-05-07T07:56:22;14.82;;;10.48;;
22557;SDS011;11445;53.816;8.902;2023-05-07T07:58:51;14.48;;;9.57;;
22557;SDS011;11445;53.816;8.902;2023-05-07T08:01:18;15.90;;;9.43;;
22557;SDS011;11445;53.816;8.902;2023-05-07T08:03:45;13.38;;;9.68;;
22557;SDS011;11445;53.816;8.902;2023-05-07T08:06:12;13.93;;;9.68;;
22557;SDS011;11445;53.816;8.902;2023-05-07T08:08:39;11.10;;;8.95;;
22557;SDS011;11445;53.816;8.902;2023-05-07T08:11:06;12.50;;;9.15;;
22557;SDS011;11445;53.816;8.902;2023-05-07T08:13:34;12.23;;;8.45;;
22557;SDS011;11445;53.816;8.902;2023-05-07T08:16:03;12.40;;;8.32;;
22557;SDS011;11445;53.816;8.902;2023-05-07T08:18:30;12.82;;;8.60;;
22557;SDS011;11445;53.816;8.902;2023-05-07T08:20:57;12.45;;;8.73;;
22557;SDS011;11445;53.816;8.902;2023-05-07T08:23:24;17.08;;;8.50;;
22557;SDS011;11445;53.816;8.902;2023-05-07T08:25:51;13.27;;;8.68;;
22557;SDS011;11445;53.816;8.902;2023-05-07T08:28:19;13.15;;;8.65;;
22557;SDS011;11445;53.816;8.902;2023-05-07T08:30:46;11.35;;;8.30;;
22557;SDS011;11445;53.816;8.902;2023-05-07T08:33:15;11.75;;;8.77;;
22557;SDS011;11445;53.816;8.902;2023-05-07T08:35:42;12.07;;;8.65;;
22557;SDS011;11445;53.816;8.902;2023-05-07T08:38:09;13.13;;;7.90;;
22557;SDS011;11445;53.816;8.902;2023-05-07T08:40:37;12.18;;;8.43;;
22557;SDS011;11445;53.816;8.902;2023-05-07T08:43:06;13.75;;;8.70;;
22557;SDS011;11445;53.816;8.902;2023-05-07T08:45:34;12.40;;;9.15;;
22557;SDS011;11445;53.816;8.902;2023-05-07T08:48:02;10.65;;;8.45;;
22557;SDS011;11445;53.816;8.902;2023-05-07T08:50:33;10.25;;;8.02;;
22557;SDS011;11445;53.816;8.902;2023-05-07T08:53:02;10.73;;;8.10;;
22557;SDS011;11445;53.816;8.902;2023-05-07T08:55:29;11.05;;;8.20;;
22557;SDS011;11445;53.816;8.902;2023-05-07T08:57:56;11.18;;;8.30;;
22557;SDS011;11445;53.816;8.902;2023-05-07T09:00:24;9.75;;;7.47;;
22557;SDS011;11445;53.816;8.902;2023-05-07T09:02:51;10.68;;;7.50;;
22557;SDS011;11445;53.816;8.902;2023-05-07T09:05:19;10.20;;;7.35;;
22557;SDS011;11445;53.816;8.902;2023-05-07T09:07:47;11.73;;;7.28;;
22557;SDS011;11445;53.816;8.902;2023-05-07T09:10:15;10.35;;;7.95;;
22557;SDS011;11445;53.816;8.902;2023-05-07T09:12:42;11.82;;;7.05;;
22557;SDS011;11445;53.816;8.902;2023-05-07T09:15:09;9.20;;;6.90;;
22557;SDS011;11445;53.816;8.902;2023-05-07T09:17:37;11.52;;;7.35;;
22557;SDS011;11445;53.816;8.902;2023-05-07T09:20:06;12.38;;;6.88;;
22557;SDS011;11445;53.816;8.902;2023-05-07T09:22:36;12.57;;;7.43;;
22557;SDS011;11445;53.816;8.902;2023-05-07T09:25:05;9.20;;;6.97;;
22557;SDS011;11445;53.816;8.902;2023-05-07T09:27:34;8.32;;;6.88;;
22557;SDS011;11445;53.816;8.902;2023-05-07T09:30:03;11.05;;;7.53;;
22557;SDS011;11445;53.816;8.902;2023-05-07T09:32:33;10.63;;;7.60;;
22557;SDS011;11445;53.816;8.902;2023-05-07T09:35:03;10.02;;;7.35;;
22557;SDS011;11445;53.816;8.902;2023-05-07T09:37:31;12.07;;;6.90;;
22557;SDS011;11445;53.816;8.902;2023-05-07T09:39:58;8.40;;;6.75;;
22557;SDS011;11445;53.816;8.902;2023-05-07T09:42:26;8.13;;;6.72;;
22557;SDS011;11445;53.816;8.902;2023-05-07T09:44:54;9.27;;;6.95;;
22557;SDS011;11445;53.816;8.902;2023-05-07T09:47:23;8.50;;;6.47;;
22557;SDS011;11445;53.816;8.902;2023-05-07T09:49:52;7.68;;;6.72;;
22557;SDS011;11445;53.816;8.902;2023-05-07T09:52:23;8.88;;;6.93;;
22557;SDS011;11445;53.816;8.902;2023-05-07T09:54:58;8.25;;;6.65;;
22557;SDS011;11445;53.816;8.902;2023-05-07T09:57:28;9.48;;;6.55;;
22557;SDS011;11445;53.816;8.902;2023-05-07T09:59:56;12.82;;;6.95;;
22557;SDS011;11445;53.816;8.902;2023-05-07T10:02:27;11.32;;;6.78;;
22557;SDS011;11445;53.816;8.902;2023-05-07T10:04:56;8.95;;;6.80;;
22557;SDS011;11445;53.816;8.902;2023-05-07T10:07:25;8.50;;;6.32;;
22557;SDS011;11445;53.816;8.902;2023-05-07T10:09:53;10.38;;;6.53;;
22557;SDS011;11445;53.816;8.902;2023-05-07T10:12:21;11.30;;;6.85;;
22557;SDS011;11445;53.816;8.902;2023-05-07T10:14:49;8.13;;;6.35;;
22557;SDS011;11445;53.816;8.902;2023-05-07T10:17:19;8.30;;;6.63;;
22557;SDS011;11445;53.816;8.902;2023-05-07T10:19:46;9.48;;;6.20;;
22557;SDS011;11445;53.816;8.902;2023-05-07T10:22:15;9.75;;;6.03;;
22557;SDS011;11445;53.816;8.902;2023-05-07T10:24:44;7.35;;;6.22;;
22557;SDS011;11445;53.816;8.902;2023-05-07T10:27:13;7.60;;;6.00;;
22557;SDS011;11445;53.816;8.902;2023-05-07T10:29:45;12.50;;;6.50;;
22557;SDS011;11445;53.816;8.902;2023-05-07T10:32:29;9.02;;;6.65;;
22557;SDS011;11445;53.816;8.902;2023-05-07T10:35:02;9.82;;;6.95;;
22557;SDS011;11445;53.816;8.902;2023-05-07T10:37:32;11.13;;;6.55;;
22557;SDS011;11445;53.816;8.902;2023-05-07T10:40:00;9.82;;;6.95;;
22557;SDS011;11445;53.816;8.902;2023-05-07T10:42:27;8.82;;;6.30;;
22557;SDS011;11445;53.816;8.902;2023-05-07T10:44:56;8.48;;;6.72;;
22557;SDS011;11445;53.816;8.902;2023-05-07T10:47:23;7.85;;;6.35;;
22557;SDS011;11445;53.816;8.902;2023-05-07T10:58:52;8.48;;;6.00;;
22557;SDS011;11445;53.816;8.902;2023-05-07T11:04:18;9.10;;;5.65;;
22557;SDS011;11445;53.816;8.902;2023-05-07T11:09:59;6.60;;;5.63;;
22557;SDS011;11445;53.816;8.902;2023-05-07T11:15:41;7.55;;;5.93;;
22557;SDS011;11445;53.816;8.902;2023-05-07T11:18:12;9.80;;;6.15;;
22557;SDS011;11445;53.816;8.902;2023-05-07T11:20:46;12.65;;;5.88;;
22557;SDS011;11445;53.816;8.902;2023-05-07T11:26:44;7.35;;;6.50;;
22557;SDS011;11445;53.816;8.902;2023-05-07T11:29:12;9.00;;;6.38;;
22557;SDS011;11445;53.816;8.902;2023-05-07T11:31:40;6.43;;;5.72;;
22557;SDS011;11445;53.816;8.902;2023-05-07T11:34:09;7.28;;;6.00;;
22557;SDS011;11445;53.816;8.902;2023-05-07T11:36:41;7.07;;;5.85;;
22557;SDS011;11445;53.816;8.902;2023-05-07T11:39:28;7.78;;;6.32;;
22557;SDS011;11445;53.816;8.902;2023-05-07T11:41:58;10.05;;;6.70;;
22557;SDS011;11445;53.816;8.902;2023-05-07T11:44:25;10.68;;;6.95;;
22557;SDS011;11445;53.816;8.902;2023-05-07T11:47:05;8.93;;;7.20;;
22557;SDS011;11445;53.816;8.902;2023-05-07T11:49:33;9.90;;;7.47;;
22557;SDS011;11445;53.816;8.902;2023-05-07T11:52:02;8.13;;;7.20;;
22557;SDS011;11445;53.816;8.902;2023-05-07T11:54:34;8.15;;;6.75;;
22557;SDS011;11445;53.816;8.902;2023-05-07T11:57:02;7.93;;;6.82;;
22557;SDS011;11445;53.816;8.902;2023-05-07T11:59:30;13.63;;;7.25;;
22557;SDS011;11445;53.816;8.902;2023-05-07T12:02:05;8.73;;;7.18;;
22557;SDS011;11445;53.816;8.902;2023-05-07T12:04:33;11.45;;;7.68;;
22557;SDS011;11445;53.816;8.902;2023-05-07T12:07:00;8.15;;;7.35;;
22557;SDS011;11445;53.816;8.902;2023-05-07T12:09:28;9.10;;;6.88;;
22557;SDS011;11445;53.816;8.902;2023-05-07T12:11:55;8.40;;;7.47;;
22557;SDS011;11445;53.816;8.902;2023-05-07T12:14:22;8.60;;;7.70;;
22557;SDS011;11445;53.816;8.902;2023-05-07T12:16:53;9.57;;;7.32;;
22557;SDS011;11445;53.816;8.902;2023-05-07T12:19:20;8.35;;;7.20;;
22557;SDS011;11445;53.816;8.902;2023-05-07T12:21:49;10.32;;;7.95;;
22557;SDS011;11445;53.816;8.902;2023-05-07T12:24:17;12.88;;;7.60;;
22557;SDS011;11445;53.816;8.902;2023-05-07T12:26:44;8.05;;;7.25;;
22557;SDS011;11445;53.816;8.902;2023-05-07T12:29:11;8.68;;;6.93;;
22557;SDS011;11445;53.816;8.902;2023-05-07T12:31:40;9.57;;;7.60;;
22557;SDS011;11445;53.816;8.902;2023-05-07T12:34:07;9.63;;;7.45;;
22557;SDS011;11445;53.816;8.902;2023-05-07T12:36:37;12.20;;;7.90;;
22557;SDS011;11445;53.816;8.902;2023-05-07T12:39:06;11.15;;;8.23;;
22557;SDS011;11445;53.816;8.902;2023-05-07T12:41:52;9.73;;;8.15;;
22557;SDS011;11445;53.816;8.902;2023-05-07T12:44:21;12.55;;;7.93;;
22557;SDS011;11445;53.816;8.902;2023-05-07T12:46:49;9.43;;;8.27;;
22557;SDS011;11445;53.816;8.902;2023-05-07T12:49:16;10.38;;;8.43;;
22557;SDS011;11445;53.816;8.902;2023-05-07T12:51:44;8.35;;;7.25;;
22557;SDS011;11445;53.816;8.902;2023-05-07T12:54:14;9.50;;;7.28;;
22557;SDS011;11445;53.816;8.902;2023-05-07T12:56:59;12.60;;;7.80;;
22557;SDS011;11445;53.816;8.902;2023-05-07T12:59:31;8.93;;;7.35;;
22557;SDS011;11445;53.816;8.902;2023-05-07T13:01:59;9.30;;;7.30;;
22557;SDS011;11445;53.816;8.902;2023-05-07T13:04:26;8.70;;;7.60;;
22557;SDS011;11445;53.816;8.902;2023-05-07T13:06:53;9.93;;;7.57;;
22557;SDS011;11445;53.816;8.902;2023-05-07T13:09:21;9.77;;;7.68;;
22557;SDS011;11445;53.816;8.902;2023-05-07T13:11:48;9.65;;;7.28;;
22557;SDS011;11445;53.816;8.902;2023-05-07T13:14:15;12.55;;;7.90;;
22557;SDS011;11445;53.816;8.902;2023-05-07T13:16:42;12.27;;;7.57;;
22557;SDS011;11445;53.816;8.902;2023-05-07T13:19:09;11.32;;;7.85;;
22557;SDS011;11445;53.816;8.902;2023-05-07T13:21:36;7.75;;;6.88;;
22557;SDS011;11445;53.816;8.902;2023-05-07T13:24:04;8.25;;;6.97;;
22557;SDS011;11445;53.816;8.902;2023-05-07T13:26:33;15.38;;;6.65;;
22557;SDS011;11445;53.816;8.902;2023-05-07T13:29:00;11.50;;;7.18;;
22557;SDS011;11445;53.816;8.902;2023-05-07T13:31:27;9.50;;;7.00;;
22557;SDS011;11445;53.816;8.902;2023-05-07T13:33:55;8.95;;;6.85;;
22557;SDS011;11445;53.816;8.902;2023-05-07T13:36:22;12.48;;;7.50;;
22557;SDS011;11445;53.816;8.902;2023-05-07T13:38:49;9.02;;;7.28;;
22557;SDS011;11445;53.816;8.902;2023-05-07T13:41:17;8.25;;;7.22;;
22557;SDS011;11445;53.816;8.902;2023-05-07T13:43:46;8.43;;;6.80;;
22557;SDS011;11445;53.816;8.902;2023-05-07T13:46:13;8.18;;;6.90;;
22557;SDS011;11445;53.816;8.902;2023-05-07T13:48:41;9.88;;;7.18;;
22557;SDS011;11445;53.816;8.902;2023-05-07T13:51:08;8.85;;;7.45;;
22557;SDS011;11445;53.816;8.902;2023-05-07T13:53:35;8.40;;;7.40;;
22557;SDS011;11445;53.816;8.902;2023-05-07T13:56:02;9.20;;;7.57;;
22557;SDS011;11445;53.816;8.902;2023-05-07T13:58:30;8.20;;;6.90;;
22557;SDS011;11445;53.816;8.902;2023-05-07T14:00:58;7.63;;;6.82;;
22557;SDS011;11445;53.816;8.902;2023-05-07T14:03:25;7.47;;;6.68;;
22557;SDS011;11445;53.816;8.902;2023-05-07T14:05:52;7.50;;;6.70;;
22557;SDS011;11445;53.816;8.902;2023-05-07T14:08:20;7.47;;;6.68;;
22557;SDS011;11445;53.816;8.902;2023-05-07T14:10:47;9.70;;;7.80;;
22557;SDS011;11445;53.816;8.902;2023-05-07T14:13:14;9.45;;;6.93;;
22557;SDS011;11445;53.816;8.902;2023-05-07T14:15:41;10.40;;;6.72;;
22557;SDS011;11445;53.816;8.902;2023-05-07T14:18:12;7.60;;;6.80;;
22557;SDS011;11445;53.816;8.902;2023-05-07T14:20:39;8.63;;;7.03;;
22557;SDS011;11445;53.816;8.902;2023-05-07T14:23:08;9.10;;;7.30;;
22557;SDS011;11445;53.816;8.902;2023-05-07T14:25:35;7.43;;;6.43;;
22557;SDS011;11445;53.816;8.902;2023-05-07T14:28:02;7.97;;;6.32;;
22557;SDS011;11445;53.816;8.902;2023-05-07T14:30:29;9.52;;;7.13;;
22557;SDS011;11445;53.816;8.902;2023-05-07T14:32:56;8.50;;;6.50;;
22557;SDS011;11445;53.816;8.902;2023-05-07T14:35:25;9.35;;;6.20;;
22557;SDS011;11445;53.816;8.902;2023-05-07T14:37:52;8.48;;;6.15;;
22557;SDS011;11445;53.816;8.902;2023-05-07T14:40:19;10.25;;;6.35;;
22557;SDS011;11445;53.816;8.902;2023-05-07T14:42:46;7.32;;;6.30;;
22557;SDS011;11445;53.816;8.902;2023-05-07T14:45:13;8.07;;;6.47;;
22557;SDS011;11445;53.816;8.902;2023-05-07T14:47:40;8.35;;;6.20;;
22557;SDS011;11445;53.816;8.902;2023-05-07T14:50:07;8.93;;;5.80;;
22557;SDS011;11445;53.816;8.902;2023-05-07T14:52:36;9.90;;;6.35;;
22557;SDS011;11445;53.816;8.902;2023-05-07T14:55:03;9.10;;;5.97;;
22557;SDS011;11445;53.816;8.902;2023-05-07T14:57:31;6.05;;;5.45;;
22557;SDS011;11445;53.816;8.902;2023-05-07T15:00:00;6.68;;;5.22;;